createdAt,value
2019-03-16T00:02:25.621Z,1.65
2019-03-16T00:04:54.174Z,1.75
2019-03-16T00:07:32.507Z,2.10
2019-03-16T00:09:53.013Z,2.12
2019-03-16T00:12:21.663Z,1.40
2019-03-16T00:14:50.163Z,1.55
2019-03-16T00:17:23.041Z,2.05
2019-03-16T00:19:48.925Z,1.35
2019-03-16T00:22:17.497Z,2.20
2019-03-16T00:24:46.049Z,2.08
2019-03-16T00:27:14.621Z,1.40
2019-03-16T00:29:43.173Z,1.55
2019-03-16T00:32:13.655Z,2.60
2019-03-16T00:34:41.946Z,1.62
2019-03-16T00:37:10.526Z,1.80
2019-03-16T00:39:39.084Z,1.70
2019-03-16T00:42:07.654Z,1.92
2019-03-16T00:44:36.211Z,2.45
2019-03-16T00:47:04.870Z,1.40
2019-03-16T00:49:33.414Z,1.75
2019-03-16T00:52:02.005Z,2.15
2019-03-16T00:54:30.542Z,1.52
2019-03-16T00:56:59.094Z,3.12
2019-03-16T00:59:27.665Z,2.30
2019-03-16T01:01:56.230Z,1.98
2019-03-16T01:04:24.874Z,1.82
2019-03-16T01:06:53.422Z,1.80
2019-03-16T01:09:22.002Z,2.10
2019-03-16T01:11:50.549Z,1.82
2019-03-16T01:14:19.120Z,1.90
2019-03-16T01:16:47.682Z,1.20
2019-03-16T01:19:16.264Z,2.02
2019-03-16T01:21:44.806Z,1.67
2019-03-16T01:24:13.377Z,2.40
2019-03-16T01:26:41.925Z,1.62
2019-03-16T01:29:10.501Z,2.62
2019-03-16T01:31:39.055Z,1.60
2019-03-16T01:34:07.639Z,1.95
2019-03-16T01:36:36.186Z,1.50
2019-03-16T01:39:07.207Z,1.57
2019-03-16T01:41:35.762Z,1.72
2019-03-16T01:44:04.469Z,1.70
2019-03-16T01:46:33.029Z,1.60
2019-03-16T01:49:01.873Z,1.35
2019-03-16T01:51:30.430Z,1.65
2019-03-16T01:53:59.099Z,1.50
2019-03-16T01:56:27.654Z,1.35
2019-03-16T01:58:56.229Z,1.70
2019-03-16T02:01:24.786Z,1.85
2019-03-16T02:03:53.361Z,1.75
2019-03-16T02:06:21.922Z,1.30
2019-03-16T02:08:50.522Z,1.37
2019-03-16T02:11:19.074Z,1.75
2019-03-16T02:13:47.654Z,1.57
2019-03-16T02:16:16.278Z,1.42
2019-03-16T02:18:44.849Z,1.50
2019-03-16T02:21:13.404Z,2.60
2019-03-16T02:23:41.986Z,2.05
2019-03-16T02:26:10.545Z,1.67
2019-03-16T02:28:39.122Z,1.40
2019-03-16T02:31:07.674Z,2.12
2019-03-16T02:33:36.250Z,1.60
2019-03-16T02:36:04.810Z,1.67
2019-03-16T02:38:33.383Z,1.42
2019-03-16T02:41:01.934Z,1.20
2019-03-16T02:43:30.511Z,1.60
2019-03-16T02:45:59.061Z,1.52
2019-03-16T02:48:27.640Z,2.08
2019-03-16T02:50:56.194Z,1.60
2019-03-16T02:53:24.770Z,2.35
2019-03-16T02:55:53.319Z,2.10
2019-03-16T02:58:21.903Z,2.20
2019-03-16T03:00:50.453Z,1.47
2019-03-16T03:03:29.074Z,2.22
2019-03-16T03:05:49.234Z,1.95
2019-03-16T03:08:17.806Z,2.02
2019-03-16T03:10:46.358Z,2.52
2019-03-16T03:13:14.934Z,1.75
2019-03-16T03:15:43.487Z,1.90
2019-03-16T03:18:12.058Z,2.30
2019-03-16T03:20:40.615Z,1.40
2019-03-16T03:23:09.174Z,1.77
2019-03-16T03:25:37.747Z,1.90
2019-03-16T03:28:06.307Z,1.65
2019-03-16T03:30:34.886Z,1.87
2019-03-16T03:33:03.450Z,1.87
2019-03-16T03:35:32.017Z,1.75
2019-03-16T03:38:00.578Z,1.60
2019-03-16T03:40:29.152Z,1.50
2019-03-16T03:42:57.920Z,2.12
2019-03-16T03:45:26.502Z,2.60
2019-03-16T03:47:55.113Z,1.87
2019-03-16T03:50:23.697Z,2.12
2019-03-16T03:52:52.250Z,2.27
2019-03-16T03:55:20.842Z,2.22
2019-03-16T03:57:49.563Z,2.75
2019-03-16T04:00:18.884Z,1.80
2019-03-16T04:02:47.973Z,2.22
2019-03-16T04:05:16.552Z,2.20
2019-03-16T04:07:45.180Z,1.62
2019-03-16T04:10:14.090Z,2.37
2019-03-16T04:12:42.646Z,2.08
2019-03-16T04:15:12.357Z,2.22
2019-03-16T04:17:40.942Z,1.67
2019-03-16T04:20:14.586Z,1.82
2019-03-16T04:22:43.133Z,2.30
2019-03-16T04:25:11.695Z,2.33
2019-03-16T04:27:40.256Z,2.60
2019-03-16T04:30:10.406Z,1.67
2019-03-16T04:32:38.973Z,1.55
2019-03-16T04:35:07.623Z,2.00
2019-03-16T04:37:36.172Z,2.85
2019-03-16T04:40:07.161Z,2.30
2019-03-16T04:42:35.719Z,1.72
2019-03-16T04:45:06.038Z,1.85
2019-03-16T04:47:34.699Z,2.02
2019-03-16T04:50:04.252Z,2.30
2019-03-16T04:52:32.809Z,2.60
2019-03-16T04:55:01.388Z,1.90
2019-03-16T04:57:29.946Z,2.00
2019-03-16T04:59:58.520Z,2.02
2019-03-16T05:02:27.073Z,2.75
2019-03-16T05:04:55.649Z,1.80
2019-03-16T05:07:24.204Z,2.00
2019-03-16T05:09:52.768Z,2.27
2019-03-16T05:12:21.331Z,2.50
2019-03-16T05:14:49.905Z,2.20
2019-03-16T05:17:18.480Z,2.45
2019-03-16T05:19:47.049Z,1.65
2019-03-16T05:22:15.600Z,2.00
2019-03-16T05:24:44.182Z,1.92
2019-03-16T05:27:12.733Z,1.77
2019-03-16T05:29:41.310Z,2.42
2019-03-16T05:32:10.085Z,1.92
2019-03-16T05:34:38.662Z,2.08
2019-03-16T05:37:07.462Z,1.80
2019-03-16T05:39:36.028Z,1.60
2019-03-16T05:42:05.372Z,2.10
2019-03-16T05:44:34.162Z,1.65
2019-03-16T05:47:02.724Z,3.47
2019-03-16T05:49:31.383Z,1.90
2019-03-16T05:51:59.930Z,2.58
2019-03-16T05:54:28.501Z,1.70
2019-03-16T05:56:57.062Z,1.80
2019-03-16T05:59:25.621Z,2.30
2019-03-16T06:01:54.440Z,2.52
2019-03-16T06:04:23.069Z,2.52
2019-03-16T06:06:51.645Z,1.95
2019-03-16T06:09:20.265Z,1.90
2019-03-16T06:11:48.837Z,2.05
2019-03-16T06:14:17.458Z,1.95
2019-03-16T06:16:46.042Z,2.35
2019-03-16T06:19:14.598Z,2.42
2019-03-16T06:21:43.175Z,1.80
2019-03-16T06:24:11.725Z,2.00
2019-03-16T06:26:40.310Z,1.70
2019-03-16T06:29:08.860Z,1.70
2019-03-16T06:31:37.438Z,3.00
2019-03-16T06:34:06.157Z,2.80
2019-03-16T06:36:34.741Z,2.30
2019-03-16T06:39:04.386Z,1.98
2019-03-16T06:41:32.967Z,2.40
2019-03-16T06:44:01.513Z,1.95
2019-03-16T06:46:30.146Z,2.50
2019-03-16T06:48:58.803Z,2.00
2019-03-16T06:51:27.369Z,2.27
2019-03-16T06:53:55.928Z,2.40
2019-03-16T06:56:24.505Z,2.47
2019-03-16T06:58:53.195Z,1.70
2019-03-16T07:01:21.778Z,2.20
2019-03-16T07:03:50.330Z,2.45
2019-03-16T07:06:18.910Z,2.40
2019-03-16T07:08:48.875Z,3.05
2019-03-16T07:11:17.466Z,2.45
2019-03-16T07:13:46.020Z,2.83
2019-03-16T07:16:14.598Z,2.10
2019-03-16T07:18:43.153Z,2.80
2019-03-16T07:21:11.802Z,3.17
2019-03-16T07:23:40.359Z,2.25
2019-03-16T07:26:14.785Z,2.30
2019-03-16T07:28:39.129Z,3.40
2019-03-16T07:31:07.701Z,2.95
2019-03-16T07:33:36.249Z,2.55
2019-03-16T07:36:04.897Z,2.30
2019-03-16T07:38:33.457Z,3.95
2019-03-16T07:41:02.039Z,2.37
2019-03-16T07:43:30.589Z,2.40
2019-03-16T07:45:59.165Z,3.00
2019-03-16T07:48:27.722Z,2.72
2019-03-16T07:50:56.303Z,2.20
2019-03-16T07:53:24.853Z,2.33
2019-03-16T07:55:53.430Z,1.90
2019-03-16T07:58:21.981Z,2.50
2019-03-16T08:00:50.567Z,6.17
2019-03-16T08:03:19.117Z,2.77
2019-03-16T08:05:47.689Z,1.82
2019-03-16T08:08:16.241Z,4.20
2019-03-16T08:10:44.895Z,4.62
2019-03-16T08:13:13.478Z,3.42
2019-03-16T08:15:42.058Z,2.95
2019-03-16T08:18:10.615Z,2.25
2019-03-16T08:20:39.186Z,2.02
2019-03-16T08:23:07.741Z,2.50
2019-03-16T08:25:36.329Z,2.75
2019-03-16T08:28:04.881Z,2.70
2019-03-16T08:30:33.429Z,1.87
2019-03-16T08:33:02.006Z,2.37
2019-03-16T08:35:30.574Z,2.40
2019-03-16T08:37:59.151Z,2.25
2019-03-16T08:40:27.696Z,2.75
2019-03-16T08:42:56.276Z,3.08
2019-03-16T08:45:24.829Z,3.20
2019-03-16T08:47:53.406Z,3.52
2019-03-16T08:50:21.969Z,3.15
2019-03-16T08:52:53.510Z,3.30
2019-03-16T08:55:20.750Z,2.92
2019-03-16T08:57:49.321Z,2.22
2019-03-16T09:00:17.874Z,2.60
2019-03-16T09:02:46.457Z,2.45
2019-03-16T09:05:15.010Z,3.15
2019-03-16T09:07:43.591Z,3.00
2019-03-16T09:10:12.218Z,3.98
2019-03-16T09:12:40.795Z,4.47
2019-03-16T09:15:16.397Z,3.92
2019-03-16T09:17:44.974Z,3.10
2019-03-16T09:20:13.589Z,3.92
2019-03-16T09:22:42.170Z,4.10
2019-03-16T09:25:11.201Z,4.10
2019-03-16T09:27:39.772Z,3.05
2019-03-16T09:30:17.847Z,3.10
2019-03-16T09:32:46.434Z,3.12
2019-03-16T09:35:14.987Z,3.22
2019-03-16T09:37:43.569Z,3.37
2019-03-16T09:40:12.861Z,3.70
2019-03-16T09:42:41.430Z,3.10
2019-03-16T09:45:11.630Z,3.37
2019-03-16T09:47:40.206Z,3.52
2019-03-16T09:50:09.846Z,3.37
2019-03-16T09:52:39.153Z,3.33
2019-03-16T09:55:11.860Z,2.95
2019-03-16T09:57:40.435Z,3.27
2019-03-16T10:00:16.526Z,3.42
2019-03-16T10:02:45.081Z,3.58
2019-03-16T10:05:13.637Z,2.80
2019-03-16T10:07:42.220Z,2.55
2019-03-16T10:10:15.359Z,3.05
2019-03-16T10:12:43.878Z,2.75
2019-03-16T10:15:14.363Z,3.60
2019-03-16T10:17:42.985Z,3.35
2019-03-16T10:20:13.856Z,2.80
2019-03-16T10:22:42.432Z,4.95
2019-03-16T10:25:11.048Z,2.87
2019-03-16T10:27:39.623Z,3.02
2019-03-16T10:30:11.590Z,4.22
2019-03-16T10:32:40.172Z,2.92
2019-03-16T10:35:08.862Z,6.42
2019-03-16T10:37:37.435Z,3.55
2019-03-16T10:40:08.495Z,3.30
2019-03-16T10:42:37.068Z,3.30
2019-03-16T10:45:07.657Z,3.58
2019-03-16T10:47:36.233Z,2.52
2019-03-16T10:50:07.911Z,2.67
2019-03-16T10:52:36.488Z,3.02
2019-03-16T10:55:06.978Z,3.10
2019-03-16T10:57:35.626Z,2.70
2019-03-16T11:00:07.213Z,3.70
2019-03-16T11:02:35.784Z,3.08
2019-03-16T11:05:05.879Z,3.85
2019-03-16T11:07:34.446Z,2.87
2019-03-16T11:10:03.484Z,2.65
2019-03-16T11:12:32.058Z,3.27
2019-03-16T11:15:00.605Z,2.92
2019-03-16T11:17:29.177Z,3.58
2019-03-16T11:19:57.733Z,4.10
2019-03-16T11:22:26.316Z,3.77
2019-03-16T11:24:54.870Z,3.30
2019-03-16T11:27:23.451Z,3.20
2019-03-16T11:29:52.002Z,3.00
2019-03-16T11:32:20.576Z,4.22
2019-03-16T11:34:49.125Z,4.12
2019-03-16T11:37:17.697Z,4.12
2019-03-16T11:39:46.245Z,5.47
2019-03-16T11:42:14.816Z,3.98
2019-03-16T11:44:43.366Z,3.65
2019-03-16T11:47:11.939Z,4.05
2019-03-16T11:49:40.495Z,3.30
2019-03-16T11:52:09.045Z,4.15
2019-03-16T11:54:37.617Z,4.33
2019-03-16T11:57:06.169Z,5.03
2019-03-16T11:59:34.746Z,4.92
2019-03-16T12:02:05.580Z,4.87
2019-03-16T12:04:33.522Z,3.72
2019-03-16T12:07:02.072Z,5.53
2019-03-16T12:09:30.645Z,3.62
2019-03-16T12:11:59.202Z,4.50
2019-03-16T12:14:27.783Z,3.25
2019-03-16T12:16:56.333Z,2.72
2019-03-16T12:19:24.911Z,2.40
2019-03-16T12:21:53.466Z,2.80
2019-03-16T12:24:22.045Z,6.45
2019-03-16T12:26:50.602Z,2.70
2019-03-16T12:29:19.179Z,2.58
2019-03-16T12:31:47.728Z,2.50
2019-03-16T12:34:16.304Z,2.25
2019-03-16T12:36:44.853Z,2.50
2019-03-16T12:39:13.435Z,2.22
2019-03-16T12:41:41.989Z,2.30
2019-03-16T12:44:10.553Z,1.87
2019-03-16T12:46:39.109Z,1.82
2019-03-16T12:49:07.711Z,2.40
2019-03-16T12:51:36.225Z,2.35
2019-03-16T12:54:04.798Z,1.90
2019-03-16T12:56:33.417Z,2.22
2019-03-16T12:59:10.303Z,3.30
2019-03-16T13:01:32.190Z,1.75
2019-03-16T13:04:00.782Z,1.92
2019-03-16T13:06:29.338Z,2.05
2019-03-16T13:08:57.909Z,1.87
2019-03-16T13:11:26.466Z,1.50
2019-03-16T13:13:55.038Z,2.20
2019-03-16T13:16:23.589Z,1.65
2019-03-16T13:18:52.179Z,1.50
2019-03-16T13:21:20.713Z,1.30
2019-03-16T13:23:49.289Z,1.45
2019-03-16T13:26:17.840Z,1.32
2019-03-16T13:28:46.409Z,1.60
2019-03-16T13:31:14.960Z,1.12
2019-03-16T13:33:43.554Z,1.60
2019-03-16T13:36:12.115Z,1.35
2019-03-16T13:38:40.682Z,1.65
2019-03-16T13:41:09.230Z,1.35
2019-03-16T13:43:37.802Z,1.40
2019-03-16T13:46:06.357Z,1.37
2019-03-16T13:48:34.931Z,0.90
2019-03-16T13:51:03.489Z,1.60
2019-03-16T13:53:32.768Z,1.30
2019-03-16T13:56:01.605Z,1.52
2019-03-16T13:58:30.177Z,1.75
2019-03-16T14:00:58.729Z,1.40
2019-03-16T14:03:27.309Z,1.20
2019-03-16T14:05:55.961Z,1.40
2019-03-16T14:08:24.542Z,1.15
2019-03-16T14:10:53.092Z,1.15
2019-03-16T14:13:21.978Z,1.40
2019-03-16T14:15:50.534Z,1.50
2019-03-16T14:18:19.113Z,1.55
2019-03-16T14:20:47.665Z,1.35
2019-03-16T14:23:16.217Z,1.50
2019-03-16T14:25:45.096Z,1.40
2019-03-16T14:28:13.651Z,1.92
2019-03-16T14:30:45.037Z,1.55
2019-03-16T14:33:12.423Z,1.75
2019-03-16T14:35:40.997Z,1.92
2019-03-16T14:38:09.574Z,2.08
2019-03-16T14:40:38.150Z,1.50
2019-03-16T14:43:06.698Z,1.65
2019-03-16T14:45:35.469Z,3.00
2019-03-16T14:48:04.093Z,2.00
2019-03-16T14:50:32.671Z,2.08
2019-03-16T14:53:01.226Z,1.95
2019-03-16T14:55:29.808Z,1.95
2019-03-16T14:57:58.358Z,2.10
2019-03-16T15:00:37.949Z,2.00
2019-03-16T15:02:57.134Z,2.60
2019-03-16T15:05:25.706Z,1.60
2019-03-16T15:07:54.330Z,2.10
2019-03-16T15:10:22.906Z,2.33
2019-03-16T15:12:51.462Z,1.70
2019-03-16T15:15:21.173Z,1.65
2019-03-16T15:17:49.727Z,2.10
2019-03-16T15:20:18.485Z,1.42
2019-03-16T15:22:47.050Z,1.35
2019-03-16T15:25:15.626Z,1.30
2019-03-16T15:27:44.178Z,1.40
2019-03-16T15:30:15.064Z,1.55
2019-03-16T15:32:43.619Z,1.55
2019-03-16T15:35:12.262Z,1.70
2019-03-16T15:37:40.804Z,1.42
2019-03-16T15:40:11.681Z,1.67
2019-03-16T15:42:40.312Z,1.60
2019-03-16T15:45:19.325Z,1.00
2019-03-16T15:47:47.876Z,1.77
2019-03-16T15:50:16.517Z,1.45
2019-03-16T15:52:45.075Z,1.30
2019-03-16T15:55:13.723Z,1.42
2019-03-16T15:57:42.954Z,1.60
2019-03-16T16:00:16.202Z,1.45
2019-03-16T16:02:44.754Z,2.08
2019-03-16T16:05:13.599Z,1.47
2019-03-16T16:07:42.167Z,1.77
2019-03-16T16:10:15.797Z,1.70
2019-03-16T16:12:44.345Z,1.50
2019-03-16T16:15:13.661Z,1.75
2019-03-16T16:17:42.286Z,1.67
2019-03-16T16:20:15.061Z,1.50
2019-03-16T16:22:43.608Z,1.32
2019-03-16T16:25:13.021Z,2.70
2019-03-16T16:27:41.574Z,1.55
2019-03-16T16:30:12.586Z,1.60
2019-03-16T16:32:41.227Z,1.20
2019-03-16T16:35:11.736Z,1.35
2019-03-16T16:37:40.362Z,1.50
2019-03-16T16:40:19.143Z,1.45
2019-03-16T16:42:47.701Z,1.32
2019-03-16T16:45:17.413Z,1.55
2019-03-16T16:47:46.033Z,1.35
2019-03-16T16:50:25.085Z,1.70
2019-03-16T16:52:53.637Z,2.12
2019-03-16T16:55:22.210Z,1.40
2019-03-16T16:57:50.776Z,1.20
2019-03-16T17:00:23.776Z,1.50
2019-03-16T17:02:53.347Z,1.10
2019-03-16T17:05:21.918Z,1.27
2019-03-16T17:07:50.473Z,1.30
2019-03-16T17:10:19.322Z,1.35
2019-03-16T17:12:47.869Z,1.45
2019-03-16T17:15:18.854Z,1.70
2019-03-16T17:17:47.402Z,1.30
2019-03-16T17:20:16.432Z,1.92
2019-03-16T17:22:44.969Z,1.30
2019-03-16T17:25:14.686Z,2.17
2019-03-16T17:27:43.305Z,1.52
2019-03-16T17:30:20.761Z,1.20
2019-03-16T17:32:49.310Z,1.50
2019-03-16T17:35:17.881Z,1.45
2019-03-16T17:37:46.434Z,1.35
2019-03-16T17:40:15.959Z,1.67
2019-03-16T17:42:44.505Z,1.92
2019-03-16T17:45:15.093Z,1.90
2019-03-16T17:47:43.754Z,1.85
2019-03-16T17:50:14.790Z,1.40
2019-03-16T17:52:43.406Z,1.17
2019-03-16T17:55:14.195Z,1.70
2019-03-16T17:57:45.317Z,1.62
2019-03-16T18:00:15.783Z,1.12
2019-03-16T18:02:51.369Z,1.10
2019-03-16T18:05:14.689Z,1.27
2019-03-16T18:07:43.382Z,1.40
2019-03-16T18:10:15.494Z,1.52
2019-03-16T18:12:44.045Z,1.20
2019-03-16T18:15:19.862Z,1.30
2019-03-16T18:17:48.408Z,1.20
2019-03-16T18:20:20.005Z,1.32
2019-03-16T18:22:50.183Z,1.50
2019-03-16T18:25:18.844Z,0.90
2019-03-16T18:27:47.535Z,1.50
2019-03-16T18:30:21.176Z,0.90
2019-03-16T18:32:49.735Z,1.17
2019-03-16T18:35:18.285Z,1.27
2019-03-16T18:37:46.926Z,1.32
2019-03-16T18:40:16.153Z,1.60
2019-03-16T18:42:44.769Z,1.02
2019-03-16T18:45:18.686Z,1.00
2019-03-16T18:47:47.260Z,1.17
2019-03-16T18:50:15.881Z,1.52
2019-03-16T18:52:44.453Z,1.40
2019-03-16T18:55:13.554Z,2.12
2019-03-16T18:57:42.981Z,2.30
2019-03-16T19:00:17.013Z,1.45
2019-03-16T19:02:45.589Z,1.35
2019-03-16T19:05:14.287Z,1.55
2019-03-16T19:07:42.844Z,1.50
2019-03-16T19:10:16.114Z,1.72
2019-03-16T19:12:44.826Z,1.70
2019-03-16T19:15:19.685Z,1.35
2019-03-16T19:17:58.507Z,1.70
2019-03-16T19:20:18.588Z,1.20
2019-03-16T19:22:47.467Z,1.35
2019-03-16T19:25:18.675Z,1.15
2019-03-16T19:27:47.329Z,1.05
2019-03-16T19:30:16.642Z,1.85
2019-03-16T19:32:45.217Z,1.42
2019-03-16T19:35:13.837Z,1.30
2019-03-16T19:37:42.410Z,1.55
2019-03-16T19:40:15.684Z,1.90
2019-03-16T19:42:46.765Z,1.30
2019-03-16T19:45:14.632Z,1.20
2019-03-16T19:47:43.206Z,1.50
2019-03-16T19:50:15.629Z,1.20
2019-03-16T19:52:44.284Z,1.70
2019-03-16T19:55:13.770Z,1.15
2019-03-16T19:57:42.610Z,1.60
2019-03-16T20:00:13.502Z,1.30
2019-03-16T20:02:50.240Z,1.25
2019-03-16T20:05:13.439Z,1.60
2019-03-16T20:07:42.737Z,1.20
2019-03-16T20:10:14.029Z,1.60
2019-03-16T20:12:42.611Z,1.50
2019-03-16T20:15:12.797Z,1.60
2019-03-16T20:17:41.461Z,1.47
2019-03-16T20:20:11.646Z,1.45
2019-03-16T20:22:40.318Z,1.30
2019-03-16T20:25:09.333Z,1.50
2019-03-16T20:27:37.904Z,1.35
2019-03-16T20:30:09.365Z,1.32
2019-03-16T20:32:37.936Z,1.00
2019-03-16T20:35:10.399Z,1.40
2019-03-16T20:37:39.138Z,1.60
2019-03-16T20:40:12.166Z,1.50
2019-03-16T20:42:40.750Z,1.42
2019-03-16T20:45:10.483Z,1.70
2019-03-16T20:47:39.125Z,1.05
2019-03-16T20:50:10.823Z,1.15
2019-03-16T20:52:39.397Z,1.30
2019-03-16T20:55:09.287Z,1.35
2019-03-16T20:57:37.857Z,1.32
2019-03-16T21:00:11.801Z,1.12
2019-03-16T21:02:40.371Z,1.10
2019-03-16T21:05:10.161Z,1.07
2019-03-16T21:07:38.738Z,1.40
2019-03-16T21:10:11.999Z,1.27
2019-03-16T21:12:40.641Z,1.40
2019-03-16T21:15:11.571Z,1.40
2019-03-16T21:17:40.105Z,1.42
2019-03-16T21:20:15.567Z,1.32
2019-03-16T21:22:44.283Z,1.40
2019-03-16T21:25:14.177Z,1.35
2019-03-16T21:27:42.745Z,0.90
2019-03-16T21:30:16.918Z,1.60
2019-03-16T21:32:45.494Z,1.20
2019-03-16T21:35:14.052Z,1.45
2019-03-16T21:37:42.626Z,1.30
2019-03-16T21:40:14.972Z,1.02
2019-03-16T21:42:43.541Z,1.17
2019-03-16T21:45:15.044Z,1.42
2019-03-16T21:47:43.813Z,1.40
2019-03-16T21:50:14.373Z,1.20
2019-03-16T21:52:44.402Z,1.50
2019-03-16T21:55:14.194Z,1.20
2019-03-16T21:57:42.837Z,1.35
2019-03-16T22:00:14.464Z,1.37
2019-03-16T22:02:43.105Z,1.35
2019-03-16T22:05:11.727Z,1.17
2019-03-16T22:07:40.303Z,1.20
2019-03-16T22:10:13.646Z,1.07
2019-03-16T22:12:42.213Z,1.10
2019-03-16T22:15:14.595Z,1.00
2019-03-16T22:17:43.164Z,1.52
2019-03-16T22:20:14.330Z,1.65
2019-03-16T22:22:42.976Z,1.20
2019-03-16T22:25:11.657Z,1.20
2019-03-16T22:27:40.229Z,1.52
2019-03-16T22:30:16.533Z,1.45
2019-03-16T22:32:45.096Z,1.30
2019-03-16T22:35:13.645Z,1.47
2019-03-16T22:37:42.222Z,1.10
2019-03-16T22:40:12.114Z,1.80
2019-03-16T22:42:40.757Z,1.12
2019-03-16T22:45:11.550Z,1.20
2019-03-16T22:47:40.126Z,1.30
2019-03-16T22:50:14.296Z,2.50
2019-03-16T22:52:42.950Z,4.22
2019-03-16T22:55:11.645Z,1.30
2019-03-16T22:57:40.226Z,1.15
2019-03-16T23:00:18.516Z,1.52
2019-03-16T23:02:47.090Z,1.10
2019-03-16T23:05:15.646Z,1.37
2019-03-16T23:07:44.221Z,1.00
2019-03-16T23:10:13.034Z,0.90
2019-03-16T23:12:41.615Z,1.17
2019-03-16T23:15:11.306Z,1.07
2019-03-16T23:17:39.872Z,1.12
2019-03-16T23:20:09.673Z,1.05
2019-03-16T23:22:38.241Z,0.98
2019-03-16T23:25:10.679Z,1.22
2019-03-16T23:27:39.316Z,0.90
2019-03-16T23:30:09.410Z,1.05
2019-03-16T23:32:37.965Z,1.25
2019-03-16T23:35:08.970Z,1.30
2019-03-16T23:37:37.521Z,1.30
2019-03-16T23:40:10.474Z,1.00
2019-03-16T23:42:39.024Z,0.82
2019-03-16T23:45:09.441Z,1.10
2019-03-16T23:47:38.000Z,1.20
2019-03-16T23:50:09.117Z,1.10
2019-03-16T23:52:37.665Z,1.00
2019-03-16T23:55:09.863Z,1.00
2019-03-16T23:57:38.411Z,1.10
